Portada
METAR-TAF:

METAR-TAF

Aeroports :

Barinas, Veneçuela

latitud: 08-37N, longitud: 070-13W, altitud: 203 m

Observació

L'informe es va fer fa 1 hora i 21 minuts, a les 01:02 UTC
Vent 2 kt del Nord
Temperatura 25°C
Humitat 79%
Pressió 1014 hPa

METAR: SVBI 050102Z AUTO 00002KT NCD 25/21 Q1014

Hora: 22:23 (02:23 UTC)


TAF: manca

Observacions i pronòstics meteorològics de més de 4000 aeroports (METAR i TAF).

Les estacions disponibles són els punts grocs i vermells al mapa.

Posi el ratolí al punt desitjat per veure el nom de l'estació.

Feu clic per veure les observacions i els pronòstics meteorològics.

Per canviar el mapa: feu clic els botons verds amb una creu de color negre per apropar; al botó verd amb un guió per allunyar la imatge; o en les fletxes verdes per a mapes adjacents.


METAR-TAF: